Time;durP1;ratioP1;P1;durP2;ratioP2;P2;SDS_P1;SDS_P2;PMS_P1;PMS_P2;Temp;Humidity;BMP_temperature;BMP_pressure;BME280_temperature;BME280_humidity;BME280_pressure;Samples;Min_cycle;Max_cycle;Signal;HPM_P1;HPM_P2
2023/01/02 00:00:22;;;;;;;20.92;18.48;;;;;;;12.06;61.30;102784.18;1752097;80;21099;-58
2023/01/02 00:02:48;;;;;;;21.07;17.70;;;;;;;12.05;61.37;102781.15;1751700;80;21482;-58
2023/01/02 00:05:16;;;;;;;25.02;19.23;;;;;;;12.03;61.48;102771.14;1760299;80;21570;-58
2023/01/02 00:07:45;;;;;;;22.55;18.20;;;;;;;12.01;61.77;102771.11;1766715;81;21011;-58
2023/01/02 00:10:11;;;;;;;22.80;19.15;;;;;;;11.99;61.97;102762.41;1750107;80;21034;-58
2023/01/02 00:12:39;;;;;;;22.42;18.15;;;;;;;12.00;62.09;102760.67;1753921;80;21035;-58
2023/01/02 00:15:07;;;;;;;24.02;18.95;;;;;;;11.99;62.42;102758.95;1764176;80;21054;-58
2023/01/02 00:17:34;;;;;;;23.42;19.30;;;;;;;12.01;62.54;102759.83;1757508;80;21021;-58
2023/01/02 00:20:01;;;;;;;25.70;18.90;;;;;;;12.01;62.57;102765.05;1759821;80;21046;-58
2023/01/02 00:22:28;;;;;;;22.15;19.50;;;;;;;12.01;62.58;102763.73;1752796;80;21018;-59
2023/01/02 00:24:54;;;;;;;23.00;19.25;;;;;;;11.99;62.62;102764.16;1759729;80;21584;-58
2023/01/02 00:27:21;;;;;;;21.65;19.30;;;;;;;11.99;62.69;102767.62;1764205;80;21026;-58
2023/01/02 00:29:49;;;;;;;22.27;19.45;;;;;;;11.99;62.69;102770.69;1750475;81;21014;-58
2023/01/02 00:32:15;;;;;;;23.22;19.48;;;;;;;11.99;62.79;102768.92;1763406;80;21042;-58
2023/01/02 00:34:42;;;;;;;21.02;18.15;;;;;;;12.00;62.78;102771.99;1761359;80;21023;-58
2023/01/02 00:37:10;;;;;;;21.20;19.00;;;;;;;12.01;62.73;102771.56;1769053;80;21081;-58
2023/01/02 00:39:36;;;;;;;22.70;17.98;;;;;;;12.01;62.56;102767.66;1769951;80;21038;-58
2023/01/02 00:42:03;;;;;;;21.45;19.15;;;;;;;12.00;62.47;102761.55;1784338;80;21620;-58
2023/01/02 00:44:31;;;;;;;22.52;19.32;;;;;;;12.01;62.38;102761.13;1757722;80;21067;-58
2023/01/02 00:46:59;;;;;;;21.82;18.15;;;;;;;12.00;62.39;102755.45;1766017;80;21038;-58
2023/01/02 00:49:27;;;;;;;22.25;18.92;;;;;;;11.99;62.45;102762.41;1769878;80;21486;-58
2023/01/02 00:51:54;;;;;;;21.17;18.87;;;;;;;11.97;62.38;102760.68;1746770;80;21037;-58
2023/01/02 00:54:20;;;;;;;24.63;19.25;;;;;;;11.97;62.31;102760.22;1770487;80;21011;-58
2023/01/02 00:56:47;;;;;;;22.85;18.92;;;;;;;11.98;62.38;102775.03;1754971;80;20978;-58
2023/01/02 00:59:14;;;;;;;18.90;16.82;;;;;;;11.97;62.30;102769.35;1749185;80;21494;-58
2023/01/02 01:01:40;;;;;;;22.20;18.52;;;;;;;11.96;62.35;102774.15;1754188;80;21015;-58
2023/01/02 01:04:07;;;;;;;20.95;17.17;;;;;;;11.96;62.34;102772.84;1783128;80;21513;-58
2023/01/02 01:06:35;;;;;;;19.67;17.57;;;;;;;11.95;62.31;102785.89;1760332;81;21057;-59
2023/01/02 01:09:02;;;;;;;22.17;17.95;;;;;;;11.95;62.34;102785.89;1759316;81;21057;-58
2023/01/02 01:11:29;;;;;;;20.50;17.62;;;;;;;11.95;62.21;102795.02;1762992;80;21031;-58
2023/01/02 01:13:57;;;;;;;23.80;18.07;;;;;;;11.93;62.20;102789.77;1749781;81;21043;-58
2023/01/02 01:16:25;;;;;;;21.07;17.40;;;;;;;11.92;62.08;102794.99;1762785;80;21062;-58
2023/01/02 01:18:54;;;;;;;23.55;18.05;;;;;;;11.91;61.96;102798.48;1763976;80;21035;-58
2023/01/02 01:21:21;;;;;;;20.12;16.97;;;;;;;11.90;61.83;102803.23;1710964;83;21053;-58
2023/01/02 01:23:51;;;;;;;20.45;17.05;;;;;;;11.87;61.71;102800.64;1707591;83;21098;-58
2023/01/02 01:26:18;;;;;;;21.10;17.50;;;;;;;11.84;61.68;102796.27;1692566;84;21018;-58
2023/01/02 01:28:45;;;;;;;22.45;18.48;;;;;;;11.82;61.68;102799.30;1681141;84;21046;-58
2023/01/02 01:31:14;;;;;;;20.68;18.02;;;;;;;11.80;61.67;102802.76;1679137;84;21082;-58
2023/01/02 01:33:42;;;;;;;21.40;18.00;;;;;;;11.78;61.65;102804.48;1673032;84;21063;-58
2023/01/02 01:36:17;;;;;;;23.42;18.30;;;;;;;11.74;61.58;102805.33;1683359;84;21032;-58
2023/01/02 01:38:44;;;;;;;19.65;17.27;;;;;;;11.68;61.60;102790.95;1676094;85;21038;-58
2023/01/02 01:41:17;;;;;;;20.80;17.85;;;;;;;11.66;61.71;102796.55;1672219;84;21051;-57
2023/01/02 01:43:50;;;;;;;20.92;17.37;;;;;;;11.63;61.79;102802.62;1663031;85;21074;-58
2023/01/02 01:46:42;;;;;;;20.88;18.35;;;;;;;11.62;61.85;102800.89;1669791;85;21071;-58
2023/01/02 01:49:23;;;;;;;21.65;17.92;;;;;;;11.61;61.80;102800.86;1682036;84;21073;-58
2023/01/02 01:51:54;;;;;;;21.55;18.23;;;;;;;11.59;61.72;102798.67;1672671;84;21118;-58
2023/01/02 01:54:29;;;;;;;20.32;18.12;;;;;;;11.58;61.84;102799.55;1654613;85;21070;-58
2023/01/02 01:56:59;;;;;;;20.52;17.90;;;;;;;11.57;61.79;102803.00;1651274;85;21102;-58
2023/01/02 01:59:26;;;;;;;24.25;18.75;;;;;;;11.56;61.83;102808.64;1666911;85;21139;-58
2023/01/02 02:01:53;;;;;;;22.62;17.87;;;;;;;11.55;61.87;102806.03;1655218;86;21113;-58
2023/01/02 02:04:20;;;;;;;22.87;18.52;;;;;;;11.54;61.87;102808.22;1621297;88;21532;-58
2023/01/02 02:06:47;;;;;;;21.52;18.98;;;;;;;11.52;61.95;102806.03;1604208;88;21067;-58
2023/01/02 02:09:23;;;;;;;22.22;18.87;;;;;;;11.51;61.96;102805.57;1613971;87;21091;-58
2023/01/02 02:11:49;;;;;;;23.20;18.55;;;;;;;11.52;61.94;102804.72;1577080;89;21079;-58
2023/01/02 02:14:17;;;;;;;20.97;18.32;;;;;;;11.51;61.92;102802.97;1615981;88;21069;-59
2023/01/02 02:17:04;;;;;;;23.15;18.82;;;;;;;11.50;61.85;102802.54;1685509;84;21679;-58
2023/01/02 02:20:11;;;;;;;21.95;18.20;;;;;;;11.48;61.88;102794.69;1672418;85;21076;-59
2023/01/02 02:23:02;;;;;;;22.52;17.85;;;;;;;11.47;61.81;102790.34;1664821;83;21117;-58
2023/01/02 02:25:56;;;;;;;20.97;17.65;;;;;;;11.44;61.85;102795.10;1714265;82;21114;-58
2023/01/02 02:28:37;;;;;;;22.27;18.60;;;;;;;11.42;61.71;102798.55;1750625;80;21066;-58
2023/01/02 02:31:15;;;;;;;21.57;17.82;;;;;;;11.41;61.77;102809.44;1757657;80;21112;-58
2023/01/02 02:33:51;;;;;;;22.00;18.73;;;;;;;11.38;61.83;102808.09;1763892;80;21069;-58
2023/01/02 02:36:41;;;;;;;19.25;17.25;;;;;;;11.37;62.02;102811.55;1761052;80;21030;-58
2023/01/02 02:39:22;;;;;;;20.02;17.92;;;;;;;11.37;62.05;102816.76;1764601;80;20995;-57
2023/01/02 02:42:10;;;;;;;22.00;19.12;;;;;;;11.36;62.12;102817.64;1755127;80;21496;-58
2023/01/02 02:45:15;;;;;;;22.45;18.35;;;;;;;11.35;62.18;102804.60;1704202;83;21042;-57
2023/01/02 02:48:13;;;;;;;21.52;18.60;;;;;;;11.35;62.22;102797.62;1693638;84;21018;-58
2023/01/02 02:51:00;;;;;;;23.27;19.20;;;;;;;11.34;62.28;102791.11;1709794;83;21636;-58
2023/01/02 02:53:39;;;;;;;22.67;19.17;;;;;;;11.33;62.24;102784.17;1650759;85;21042;-58
2023/01/02 02:56:07;;;;;;;21.87;18.65;;;;;;;11.31;62.03;102777.62;1667264;86;21101;-58
2023/01/02 02:58:34;;;;;;;24.82;19.48;;;;;;;11.30;62.02;102783.71;1659598;86;21112;-58
2023/01/02 03:01:04;;;;;;;24.02;19.73;;;;;;;11.28;62.04;102777.62;1646655;85;21584;-58
2023/01/02 03:03:32;;;;;;;21.80;18.82;;;;;;;11.28;62.20;102772.41;1633119;87;21517;-59
2023/01/02 03:06:06;;;;;;;22.05;18.67;;;;;;;11.26;62.16;102770.22;1628873;87;21069;-58
2023/01/02 03:09:00;;;;;;;22.42;18.95;;;;;;;11.28;62.23;102770.22;1623060;87;21064;-58
2023/01/02 03:11:54;;;;;;;23.20;19.07;;;;;;;11.27;62.14;102765.43;1635724;87;21074;-58
2023/01/02 03:14:48;;;;;;;22.25;18.15;;;;;;;11.26;61.95;102771.52;1593328;88;21071;-58
2023/01/02 03:17:21;;;;;;;20.95;18.73;;;;;;;11.23;62.02;102771.48;1592159;88;21118;-58
2023/01/02 03:19:56;;;;;;;21.48;19.17;;;;;;;11.21;62.13;102767.99;1574058;90;21125;-58
2023/01/02 03:22:27;;;;;;;21.75;19.15;;;;;;;11.20;62.29;102759.75;1577398;90;21141;-58
2023/01/02 03:24:54;;;;;;;22.15;18.98;;;;;;;11.21;62.39;102764.08;1562730;90;21068;-59
2023/01/02 03:27:24;;;;;;;24.60;19.67;;;;;;;11.22;62.53;102766.27;1602183;88;21618;-58
2023/01/02 03:30:03;;;;;;;24.57;19.73;;;;;;;11.21;62.62;102772.36;1622983;86;21169;-58
2023/01/02 03:32:33;;;;;;;24.12;19.45;;;;;;;11.21;62.86;102770.59;1587493;88;21476;-58
2023/01/02 03:35:01;;;;;;;25.10;20.50;;;;;;;11.22;62.98;102784.09;1601497;89;21639;-58
2023/01/02 03:37:32;;;;;;;21.73;19.27;;;;;;;11.21;63.20;102783.63;1599867;88;21601;-58
2023/01/02 03:40:04;;;;;;;24.10;19.05;;;;;;;11.22;63.24;102786.69;1600600;88;21097;-58
2023/01/02 03:42:39;;;;;;;23.57;19.67;;;;;;;11.23;63.44;102778.00;1597680;88;21123;-58
2023/01/02 03:45:19;;;;;;;23.10;20.55;;;;;;;11.24;63.60;102777.58;1607067;88;21065;-58
2023/01/02 03:47:58;;;;;;;25.10;20.82;;;;;;;11.25;63.61;102776.73;1577055;88;21096;-58
2023/01/02 03:50:33;;;;;;;20.32;17.87;;;;;;;11.25;63.59;102786.70;1600717;88;21077;-58
2023/01/02 03:53:00;;;;;;;24.70;20.12;;;;;;;11.25;63.52;102789.76;1537518;93;21934;-57
2023/01/02 03:55:27;;;;;;;23.30;19.15;;;;;;;11.24;63.52;102792.78;1532351;93;21144;-57
2023/01/02 03:58:20;;;;;;;23.80;19.52;;;;;;;11.25;63.46;102792.37;1491079;94;21117;-57
2023/01/02 04:00:52;;;;;;;23.77;19.07;;;;;;;11.24;63.43;102790.19;1469157;94;21687;-57
2023/01/02 04:03:28;;;;;;;26.52;20.72;;;;;;;11.23;63.38;102793.63;1454060;98;21107;-57
2023/01/02 04:06:11;;;;;;;23.92;20.15;;;;;;;11.23;63.34;102795.39;1448603;98;21173;-57
2023/01/02 04:08:52;;;;;;;26.75;20.57;;;;;;;11.22;63.34;102797.12;1423855;99;21168;-57
2023/01/02 04:11:19;;;;;;;24.20;18.70;;;;;;;11.21;63.30;102793.20;1391791;103;21124;-57
2023/01/02 04:13:50;;;;;;;22.13;18.12;;;;;;;11.21;63.11;102799.27;1392665;103;21301;-57
2023/01/02 04:16:20;;;;;;;20.70;18.43;;;;;;;11.18;63.03;102803.16;1371461;103;21121;-57
2023/01/02 04:18:52;;;;;;;22.32;19.02;;;;;;;11.18;62.91;102800.56;1387041;101;21180;-57
2023/01/02 04:21:22;;;;;;;21.00;18.67;;;;;;;11.15;62.83;102808.34;1350866;105;21166;-57
2023/01/02 04:23:58;;;;;;;21.07;17.30;;;;;;;11.14;62.90;102797.91;1349664;105;21716;-57
2023/01/02 04:26:34;;;;;;;22.27;18.20;;;;;;;11.13;62.83;102799.63;1351794;105;21162;-57
2023/01/02 04:29:01;;;;;;;20.17;17.37;;;;;;;11.11;62.81;102798.75;1356455;105;21229;-57
2023/01/02 04:31:54;;;;;;;22.42;18.60;;;;;;;11.10;62.78;102800.05;1368478;104;21167;-57
2023/01/02 04:34:20;;;;;;;22.00;18.35;;;;;;;11.07;62.70;102802.19;1364960;103;21217;-57
2023/01/02 04:36:47;;;;;;;20.92;17.42;;;;;;;11.06;62.77;102804.79;1368971;103;21262;-57
2023/01/02 04:39:13;;;;;;;22.02;19.37;;;;;;;11.03;62.69;102812.14;1367565;103;21184;-58
2023/01/02 04:41:41;;;;;;;23.07;20.57;;;;;;;11.01;62.66;102811.25;1365071;105;21725;-57
2023/01/02 04:44:08;;;;;;;22.42;19.60;;;;;;;11.00;62.53;102820.37;1365101;103;21243;-57
2023/01/02 04:46:34;;;;;;;22.65;19.40;;;;;;;10.95;62.66;102825.53;1365053;103;21164;-57
2023/01/02 04:49:01;;;;;;;23.40;20.25;;;;;;;10.95;62.83;102822.05;1380475;97;21263;-58
2023/01/02 04:51:28;;;;;;;25.05;20.55;;;;;;;10.93;62.99;102820.73;1433103;98;21099;-57
2023/01/02 04:53:55;;;;;;;28.23;20.27;;;;;;;10.92;62.95;102825.48;1429103;99;21659;-57
2023/01/02 04:56:21;;;;;;;22.05;18.07;;;;;;;10.92;62.87;102827.23;1424840;99;21180;-57
2023/01/02 04:58:48;;;;;;;22.05;18.70;;;;;;;10.90;62.90;102830.26;1420860;98;21605;-57
2023/01/02 05:01:17;;;;;;;23.55;19.90;;;;;;;10.90;62.85;102837.62;1586708;90;21133;-57
2023/01/02 05:03:46;;;;;;;21.87;19.27;;;;;;;10.89;62.76;102838.91;1604531;89;21081;-57
2023/01/02 05:06:12;;;;;;;24.32;19.12;;;;;;;10.88;62.79;102840.64;1624206;87;21106;-58
2023/01/02 05:08:39;;;;;;;25.95;20.48;;;;;;;10.87;62.82;102846.72;1657777;86;21550;-57
2023/01/02 05:11:11;;;;;;;22.25;19.40;;;;;;;10.85;62.69;102847.13;1618868;87;21086;-57
2023/01/02 05:13:38;;;;;;;22.87;20.40;;;;;;;10.85;62.64;102858.86;1664428;84;21649;-57
2023/01/02 05:16:07;;;;;;;22.98;19.55;;;;;;;10.83;62.65;102863.17;1751268;80;21067;-57
2023/01/02 05:18:33;;;;;;;22.73;19.42;;;;;;;10.84;62.64;102857.09;1765667;80;21029;-57
2023/01/02 05:21:05;;;;;;;22.67;19.05;;;;;;;10.83;62.58;102870.98;1758229;80;21046;-57
2023/01/02 05:23:47;;;;;;;24.98;19.30;;;;;;;10.81;62.49;102867.49;1746212;80;21016;-56
2023/01/02 05:26:15;;;;;;;;;;;;;;;10.81;62.43;102879.63;1758146;80;21056;-57
2023/01/02 05:28:41;;;;;;;24.18;19.45;;;;;;;10.78;62.23;102874.41;1754306;80;20109;-57
2023/01/02 05:31:08;;;;;;;23.62;19.05;;;;;;;10.74;62.01;102874.78;1756895;80;21590;-57
2023/01/02 05:33:35;;;;;;;23.27;19.07;;;;;;;10.69;61.96;102882.10;1761349;80;21034;-57
2023/01/02 05:36:05;;;;;;;24.50;19.90;;;;;;;10.67;61.94;102876.89;1759833;80;21019;-56
2023/01/02 05:38:34;;;;;;;25.88;20.25;;;;;;;10.64;61.71;102882.05;1763830;80;21049;-57
2023/01/02 05:41:05;;;;;;;25.45;19.23;;;;;;;10.63;61.66;102880.31;1773086;80;21069;-61
2023/01/02 05:43:33;;;;;;;24.90;19.80;;;;;;;10.60;61.57;102875.05;1756790;80;21005;-57
2023/01/02 05:46:16;;;;;;;22.32;19.25;;;;;;;10.58;61.50;102874.16;1774355;80;21497;-57
2023/01/02 05:48:44;;;;;;;25.12;20.40;;;;;;;10.56;61.47;102870.67;1679840;83;21062;-57
2023/01/02 05:51:14;;;;;;;24.12;19.90;;;;;;;10.53;61.45;102878.46;1693473;84;21074;-57
2023/01/02 05:53:40;;;;;;;26.93;22.00;;;;;;;10.51;61.56;102880.14;1686702;83;21113;-57
2023/01/02 05:56:13;;;;;;;25.17;20.92;;;;;;;10.49;61.76;102874.92;1695658;83;21041;-57
2023/01/02 05:58:43;;;;;;;23.42;19.50;;;;;;;10.47;61.90;102877.05;1694092;84;21118;-57
2023/01/02 06:01:16;;;;;;;23.47;19.32;;;;;;;10.46;62.18;102877.92;1699088;84;21628;-57
2023/01/02 06:03:46;;;;;;;25.10;19.87;;;;;;;10.47;62.40;102873.15;1697213;83;21058;-57
2023/01/02 06:06:13;;;;;;;25.62;20.82;;;;;;;10.48;62.56;102869.70;1691750;83;21093;-58
2023/01/02 06:08:40;;;;;;;23.32;20.50;;;;;;;10.52;62.72;102874.98;1689529;84;21097;-57
2023/01/02 06:11:07;;;;;;;23.77;20.50;;;;;;;10.53;62.96;102873.25;1688817;83;21169;-57
2023/01/02 06:13:36;;;;;;;22.50;19.30;;;;;;;10.57;63.11;102873.73;1699031;84;21172;-57
2023/01/02 06:16:04;;;;;;;21.77;19.45;;;;;;;10.59;63.20;102873.33;1687281;83;21094;-57
2023/01/02 06:18:32;;;;;;;22.98;19.82;;;;;;;10.63;63.38;102880.31;1684840;84;21529;-57
2023/01/02 06:21:06;;;;;;;24.30;21.37;;;;;;;10.67;63.35;102876.89;1690727;83;21109;-57
2023/01/02 06:23:32;;;;;;;22.70;20.23;;;;;;;10.71;63.44;102881.27;1692410;84;21098;-57
2023/01/02 06:26:07;;;;;;;25.88;19.70;;;;;;;10.76;63.35;102876.97;1692122;84;21550;-57
2023/01/02 06:28:34;;;;;;;22.20;19.82;;;;;;;10.80;63.31;102876.15;1662613;85;21110;-57
2023/01/02 06:31:03;;;;;;;22.67;18.98;;;;;;;10.82;63.38;102878.34;1653579;85;21599;-57
2023/01/02 06:33:31;;;;;;;24.52;18.37;;;;;;;10.87;63.42;102881.00;1661981;85;21121;-58
2023/01/02 06:36:06;;;;;;;22.22;18.75;;;;;;;10.90;63.54;102875.38;1655481;85;21581;-57
2023/01/02 06:38:33;;;;;;;23.30;17.85;;;;;;;10.95;63.57;102878.92;1606335;88;21078;-57
2023/01/02 06:41:00;;;;;;;20.40;16.82;;;;;;;11.00;63.68;102873.34;1622559;87;21547;-57
2023/01/02 06:43:28;;;;;;;21.25;16.77;;;;;;;11.03;63.72;102872.06;1600270;87;21155;-57
2023/01/02 06:46:03;;;;;;;20.30;16.85;;;;;;;11.07;63.83;102872.95;1642802;86;21053;-57
2023/01/02 06:48:33;;;;;;;21.95;15.80;;;;;;;11.12;63.95;102871.28;1645959;86;21042;-57
2023/01/02 06:51:05;;;;;;;25.12;15.55;;;;;;;11.16;64.02;102870.03;1650513;86;21062;-57
2023/01/02 06:53:35;;;;;;;16.45;14.55;;;;;;;11.21;64.07;102871.38;1647044;86;21054;-57
2023/01/02 06:56:03;;;;;;;15.75;12.75;;;;;;;11.24;64.15;102863.57;1651297;84;21244;-57
2023/01/02 06:58:31;;;;;;;17.60;13.13;;;;;;;11.25;64.12;102867.48;1641437;85;21563;-57
2023/01/02 07:01:17;;;;;;;14.95;12.25;;;;;;;11.29;64.23;102869.71;1646492;86;21049;-57
2023/01/02 07:03:44;;;;;;;16.70;14.30;;;;;;;11.32;64.30;102873.21;1602132;88;21652;-57
2023/01/02 07:06:17;;;;;;;16.25;12.98;;;;;;;11.37;64.42;102876.71;1608434;88;21090;-59
2023/01/02 07:08:46;;;;;;;15.58;13.05;;;;;;;11.40;64.47;102870.23;1585244;89;21070;-57
2023/01/02 07:11:18;;;;;;;13.88;12.25;;;;;;;11.46;64.63;102872.01;1581501;89;21073;-57
2023/01/02 07:13:46;;;;;;;17.27;13.38;;;;;;;11.51;64.67;102866.42;1499936;93;21182;-56
2023/01/02 07:16:15;;;;;;;16.93;13.68;;;;;;;11.56;64.80;102863.84;1494477;94;21097;-57
2023/01/02 07:18:41;;;;;;;19.00;15.23;;;;;;;11.61;64.95;102859.52;1462737;96;21085;-57
2023/01/02 07:21:09;;;;;;;17.90;15.00;;;;;;;11.66;65.05;102860.45;1483974;95;21116;-57
2023/01/02 07:23:35;;;;;;;16.17;14.43;;;;;;;11.73;64.97;102860.95;1504473;95;21651;-57
2023/01/02 07:26:04;;;;;;;16.77;14.60;;;;;;;11.77;65.07;102854.47;1506369;94;21154;-57
2023/01/02 07:28:31;;;;;;;17.02;15.20;;;;;;;11.83;65.08;102856.27;1561425;91;21607;-57
2023/01/02 07:31:02;;;;;;;17.52;14.58;;;;;;;11.86;65.13;102861.05;1539208;91;21279;-58
2023/01/02 07:33:29;;;;;;;18.52;15.55;;;;;;;11.90;65.21;102855.41;1477208;96;21231;-57
2023/01/02 07:36:03;;;;;;;22.32;15.40;;;;;;;11.96;65.25;102855.45;1442371;99;21200;-57
2023/01/02 07:38:30;;;;;;;17.42;15.58;;;;;;;12.00;65.31;102852.88;1388189;102;21131;-57
2023/01/02 07:40:56;;;;;;;19.90;15.83;;;;;;;12.06;65.24;102845.50;1384018;102;21234;-57
2023/01/02 07:43:23;;;;;;;19.12;15.93;;;;;;;12.11;65.20;102843.80;1388477;102;21191;-57
2023/01/02 07:45:50;;;;;;;17.00;15.05;;;;;;;12.20;65.03;102849.05;1372950;103;21284;-57
2023/01/02 07:48:17;;;;;;;16.42;14.75;;;;;;;12.24;64.94;102847.77;1367850;103;21656;-57
2023/01/02 07:50:45;;;;;;;16.35;14.50;;;;;;;12.28;64.91;102852.14;1376666;103;21127;-57
2023/01/02 07:53:12;;;;;;;16.07;14.40;;;;;;;12.32;64.84;102858.27;1369723;103;21172;-56
2023/01/02 07:55:39;;;;;;;15.00;13.40;;;;;;;12.35;64.78;102867.83;1368779;104;21712;-57
2023/01/02 07:58:07;;;;;;;14.70;12.98;;;;;;;12.38;64.75;102883.09;1377456;102;21155;-57
2023/01/02 08:00:33;;;;;;;14.50;12.40;;;;;;;12.42;64.63;102883.55;1406966;100;21614;-56
2023/01/02 08:03:00;;;;;;;15.40;12.53;;;;;;;12.45;64.67;102882.23;1424674;100;21257;-56
2023/01/02 08:05:27;;;;;;;13.18;11.78;;;;;;;12.50;64.66;102886.18;1434259;98;21892;-57
2023/01/02 08:07:53;;;;;;;14.65;12.07;;;;;;;12.55;64.58;102882.70;1455716;96;21112;-57
2023/01/02 08:10:22;;;;;;;12.58;11.25;;;;;;;12.57;64.56;102877.05;1452465;97;21722;-56
2023/01/02 08:12:49;;;;;;;13.85;11.35;;;;;;;12.62;64.49;102881.88;1446771;97;21156;-57
2023/01/02 08:15:16;;;;;;;12.50;10.90;;;;;;;12.68;64.48;102881.90;1454994;98;21154;-57
2023/01/02 08:17:42;;;;;;;17.45;12.00;;;;;;;12.74;64.48;102889.75;1491335;94;21668;-57
2023/01/02 08:20:10;;;;;;;13.22;11.57;;;;;;;12.79;64.42;102884.55;1493936;94;21120;-57
2023/01/02 08:22:36;;;;;;;16.45;12.10;;;;;;;12.85;64.49;102882.83;1498498;94;21188;-57
2023/01/02 08:25:05;;;;;;;14.45;11.38;;;;;;;12.89;64.57;102870.21;1492444;94;21141;-56
2023/01/02 08:27:32;;;;;;;12.90;11.43;;;;;;;12.94;64.50;102861.92;1481688;95;21152;-57
2023/01/02 08:29:59;;;;;;;13.03;11.50;;;;;;;13.00;64.31;102861.09;1539886;88;21092;-57
2023/01/02 08:32:27;;;;;;;13.83;11.30;;;;;;;13.03;64.32;102863.27;1592893;89;21088;-56
2023/01/02 08:34:54;;;;;;;14.55;11.63;;;;;;;13.08;64.28;102862.43;1637091;83;21074;-57
2023/01/02 08:37:20;;;;;;;13.13;10.55;;;;;;;13.13;64.17;102863.32;1699378;83;21038;-57
2023/01/02 08:39:48;;;;;;;17.55;11.45;;;;;;;13.17;64.05;102854.61;1764491;80;21612;-57
2023/01/02 08:42:15;;;;;;;14.73;10.72;;;;;;;13.21;63.90;102852.44;1766263;80;21086;-57
2023/01/02 08:44:42;;;;;;;12.85;10.63;;;;;;;13.23;63.77;102845.46;1752287;81;21499;-57
2023/01/02 08:47:10;;;;;;;15.20;11.60;;;;;;;13.24;63.61;102845.88;1746667;80;21513;-57
2023/01/02 08:49:38;;;;;;;13.38;10.40;;;;;;;13.25;63.57;102849.80;1759758;80;21124;-57
2023/01/02 08:52:04;;;;;;;13.83;11.10;;;;;;;13.27;63.60;102858.97;1765112;80;21028;-57
2023/01/02 08:54:34;;;;;;;12.82;10.58;;;;;;;13.28;63.58;102856.77;1766310;80;21521;-57
2023/01/02 08:57:01;;;;;;;12.45;10.30;;;;;;;13.29;63.69;102855.92;1767221;80;21057;-57
2023/01/02 08:59:27;;;;;;;13.05;10.82;;;;;;;13.34;63.70;102846.31;1765778;80;21031;-57
2023/01/02 09:01:54;;;;;;;12.40;9.83;;;;;;;13.38;63.63;102844.14;1765568;80;21513;-57
2023/01/02 09:04:21;;;;;;;13.25;10.60;;;;;;;13.41;63.71;102837.61;1762881;80;21026;-57
2023/01/02 09:06:47;;;;;;;12.95;10.98;;;;;;;13.46;63.72;102835.84;1751370;80;21065;-57
2023/01/02 09:09:15;;;;;;;13.15;10.75;;;;;;;13.49;63.69;102836.74;1762689;80;21597;-57
2023/01/02 09:11:45;;;;;;;11.95;10.28;;;;;;;13.55;63.65;102831.93;1763722;80;21140;-57
2023/01/02 09:14:12;;;;;;;12.58;10.90;;;;;;;13.60;63.71;102839.35;1750916;81;20994;-58
2023/01/02 09:16:39;;;;;;;14.18;11.08;;;;;;;13.65;63.66;102837.58;1750967;80;21084;-57
2023/01/02 09:19:06;;;;;;;14.78;11.43;;;;;;;13.69;63.73;102834.97;1763299;80;21125;-57
2023/01/02 09:21:33;;;;;;;12.30;10.63;;;;;;;13.75;63.57;102827.10;1745351;81;21081;-57
2023/01/02 09:24:00;;;;;;;15.68;10.88;;;;;;;13.82;63.61;102831.46;1767011;80;21069;-57
2023/01/02 09:26:27;;;;;;;11.73;10.53;;;;;;;13.90;63.64;102827.50;1757762;80;21209;-57
2023/01/02 09:28:53;;;;;;;11.88;10.50;;;;;;;13.98;63.48;102829.66;1753820;81;21494;-57
2023/01/02 09:31:20;;;;;;;13.85;10.58;;;;;;;14.04;63.26;102820.48;1765877;80;20987;-57
2023/01/02 09:33:48;;;;;;;12.63;10.50;;;;;;;14.09;63.12;102820.04;1752839;80;21039;-57
2023/01/02 09:36:17;;;;;;;13.40;10.08;;;;;;;14.15;63.01;102817.40;1753058;80;21034;-57
2023/01/02 09:38:43;;;;;;;12.43;10.32;;;;;;;14.19;62.85;102816.51;1746117;81;21557;-57
2023/01/02 09:41:20;;;;;;;12.90;9.93;;;;;;;14.22;62.72;102813.02;1746272;80;21573;-57
2023/01/02 09:44:00;;;;;;;12.23;9.73;;;;;;;14.26;62.58;102812.13;1718029;81;21022;-57
2023/01/02 09:46:44;;;;;;;11.70;9.18;;;;;;;14.26;62.57;102805.11;1735117;81;21025;-58
2023/01/02 09:49:17;;;;;;;10.90;9.75;;;;;;;14.28;62.42;102806.01;1660897;84;21019;-57
2023/01/02 09:51:44;;;;;;;13.18;10.35;;;;;;;14.29;62.41;102807.77;1651764;85;21078;-57
2023/01/02 09:54:27;;;;;;;11.95;9.68;;;;;;;14.31;62.35;102807.32;1659539;85;21528;-57
2023/01/02 09:57:28;;;;;;;13.45;10.03;;;;;;;14.32;62.13;102807.73;1657223;84;21108;-57
2023/01/02 10:00:19;;;;;;;14.18;10.15;;;;;;;14.30;62.07;102796.39;1665376;84;21569;-57
2023/01/02 10:03:02;;;;;;;11.43;9.73;;;;;;;14.25;62.28;102795.53;1662241;83;21133;-57
2023/01/02 10:05:57;;;;;;;14.30;10.18;;;;;;;14.24;62.37;102795.55;1653325;84;21042;-57
2023/01/02 10:09:06;;;;;;;11.10;9.80;;;;;;;14.23;62.40;102792.05;1644683;85;21143;-57
2023/01/02 10:11:44;;;;;;;14.75;9.93;;;;;;;14.23;62.45;102781.58;1673175;84;21068;-58
2023/01/02 10:14:16;;;;;;;10.08;8.68;;;;;;;14.27;62.42;102782.42;1664820;84;21570;-57
2023/01/02 10:16:50;;;;;;;11.55;9.48;;;;;;;14.28;62.49;102782.87;1630943;87;21038;-57
2023/01/02 10:19:48;;;;;;;12.43;9.23;;;;;;;14.31;62.61;102783.75;1607387;87;22455;-57
2023/01/02 10:22:21;;;;;;;10.32;9.20;;;;;;;14.35;62.71;102783.28;1595806;87;21119;-58
2023/01/02 10:25:17;;;;;;;11.18;9.43;;;;;;;14.41;62.54;102778.02;1560137;89;21105;-57
2023/01/02 10:27:53;;;;;;;10.95;8.75;;;;;;;14.44;62.65;102776.27;1583358;89;21090;-57
2023/01/02 10:30:25;;;;;;;13.60;8.65;;;;;;;14.48;62.61;102771.45;1522212;92;21199;-57
2023/01/02 10:33:03;;;;;;;10.00;8.45;;;;;;;14.54;62.48;102774.02;1534573;91;21672;-57
2023/01/02 10:35:43;;;;;;;12.00;9.20;;;;;;;14.57;62.23;102772.67;1512916;93;21065;-57
2023/01/02 10:38:12;;;;;;;11.38;8.10;;;;;;;14.60;62.13;102767.44;1486887;94;21322;-57
2023/01/02 10:40:39;;;;;;;9.63;8.60;;;;;;;14.64;62.13;102769.58;1506567;93;21142;-57
2023/01/02 10:43:06;;;;;;;8.43;7.58;;;;;;;14.67;62.23;102769.11;1504249;93;21642;-57
2023/01/02 10:45:34;;;;;;;9.98;8.68;;;;;;;14.72;61.82;102773.45;1494203;94;21724;-57
2023/01/02 10:48:00;;;;;;;10.93;8.85;;;;;;;14.74;61.76;102767.76;1535897;92;21111;-57
2023/01/02 10:50:31;;;;;;;8.88;8.03;;;;;;;14.74;61.54;102764.70;1533385;92;21171;-57
2023/01/02 10:53:28;;;;;;;11.43;9.13;;;;;;;14.75;61.53;102768.20;1529206;91;21137;-57
2023/01/02 10:55:55;;;;;;;11.55;9.55;;;;;;;14.75;61.40;102763.84;1576924;89;21047;-57
2023/01/02 10:58:25;;;;;;;10.10;8.93;;;;;;;14.75;61.36;102761.66;1581802;89;21115;-57
2023/01/02 11:01:12;;;;;;;12.30;10.55;;;;;;;14.75;61.30;102757.72;1573992;90;21083;-57
2023/01/02 11:03:39;;;;;;;10.50;9.43;;;;;;;14.74;61.30;102751.60;1511530;94;21109;-57
2023/01/02 11:06:21;;;;;;;11.18;9.73;;;;;;;14.76;61.21;102748.96;1514329;93;21592;-57
2023/01/02 11:08:56;;;;;;;11.57;9.83;;;;;;;14.75;61.15;102743.31;1545657;90;21188;-57
2023/01/02 11:11:23;;;;;;;13.20;10.85;;;;;;;14.75;61.19;102745.50;1585539;89;21605;-57
2023/01/02 11:13:53;;;;;;;12.15;10.60;;;;;;;14.77;61.17;102744.17;1588681;89;21076;-57
2023/01/02 11:16:25;;;;;;;14.70;11.22;;;;;;;14.80;61.18;102741.07;1582248;89;21073;-57
2023/01/02 11:18:55;;;;;;;11.43;10.35;;;;;;;14.84;61.13;102742.78;1591553;88;21692;-57
2023/01/02 11:21:37;;;;;;;11.65;10.35;;;;;;;14.89;61.01;102742.75;1591468;89;21034;-57
2023/01/02 11:24:14;;;;;;;11.80;10.60;;;;;;;14.92;60.88;102743.59;1582862;88;21086;-57
2023/01/02 11:26:39;;;;;;;13.35;9.98;;;;;;;14.96;60.65;102741.84;1590274;89;21561;-57
2023/01/02 11:29:18;;;;;;;11.60;10.40;;;;;;;14.99;60.38;102739.17;1541444;91;21164;-57